sensor_id;sensor_type;location;lat;lon;timestamp;P1;durP1;ratioP1;P2;durP2;ratioP2
54517;SDS011;40423;53.176;6.002;2022-11-20T00:00:35;17.60;;;12.10;;
54517;SDS011;40423;53.176;6.002;2022-11-20T00:03:01;18.88;;;12.02;;
54517;SDS011;40423;53.176;6.002;2022-11-20T00:05:26;15.98;;;10.82;;
54517;SDS011;40423;53.176;6.002;2022-11-20T00:07:52;21.00;;;12.30;;
54517;SDS011;40423;53.176;6.002;2022-11-20T00:10:18;22.95;;;14.15;;
54517;SDS011;40423;53.176;6.002;2022-11-20T00:12:43;24.60;;;15.95;;
54517;SDS011;40423;53.176;6.002;2022-11-20T00:15:09;20.05;;;13.40;;
54517;SDS011;40423;53.176;6.002;2022-11-20T00:17:35;17.85;;;12.07;;
54517;SDS011;40423;53.176;6.002;2022-11-20T00:20:01;19.88;;;13.32;;
54517;SDS011;40423;53.176;6.002;2022-11-20T00:22:26;19.30;;;13.10;;
54517;SDS011;40423;53.176;6.002;2022-11-20T00:24:52;21.23;;;12.90;;
54517;SDS011;40423;53.176;6.002;2022-11-20T00:27:18;15.18;;;10.30;;
54517;SDS011;40423;53.176;6.002;2022-11-20T00:29:43;16.20;;;11.00;;
54517;SDS011;40423;53.176;6.002;2022-11-20T00:32:09;17.95;;;11.55;;
54517;SDS011;40423;53.176;6.002;2022-11-20T00:34:35;27.08;;;16.08;;
54517;SDS011;40423;53.176;6.002;2022-11-20T00:37:00;23.20;;;14.57;;
54517;SDS011;40423;53.176;6.002;2022-11-20T00:39:26;19.40;;;12.77;;
54517;SDS011;40423;53.176;6.002;2022-11-20T00:41:52;18.23;;;12.40;;
54517;SDS011;40423;53.176;6.002;2022-11-20T00:44:17;17.83;;;12.00;;
54517;SDS011;40423;53.176;6.002;2022-11-20T00:46:43;19.08;;;11.48;;
54517;SDS011;40423;53.176;6.002;2022-11-20T00:49:09;18.92;;;12.02;;
54517;SDS011;40423;53.176;6.002;2022-11-20T00:51:34;19.42;;;12.15;;
54517;SDS011;40423;53.176;6.002;2022-11-20T00:54:00;17.15;;;11.38;;
54517;SDS011;40423;53.176;6.002;2022-11-20T00:56:27;18.75;;;12.45;;
54517;SDS011;40423;53.176;6.002;2022-11-20T00:58:52;19.08;;;12.23;;
54517;SDS011;40423;53.176;6.002;2022-11-20T01:01:20;18.38;;;11.48;;
54517;SDS011;40423;53.176;6.002;2022-11-20T01:03:51;17.83;;;11.75;;
54517;SDS011;40423;53.176;6.002;2022-11-20T01:06:19;16.80;;;11.57;;
54517;SDS011;40423;53.176;6.002;2022-11-20T01:08:53;16.05;;;10.98;;
54517;SDS011;40423;53.176;6.002;2022-11-20T01:11:21;15.40;;;9.73;;
54517;SDS011;40423;53.176;6.002;2022-11-20T01:13:48;17.20;;;11.73;;
54517;SDS011;40423;53.176;6.002;2022-11-20T01:16:19;19.17;;;12.00;;
54517;SDS011;40423;53.176;6.002;2022-11-20T01:18:50;16.73;;;11.00;;
54517;SDS011;40423;53.176;6.002;2022-11-20T01:21:21;16.60;;;10.98;;
54517;SDS011;40423;53.176;6.002;2022-11-20T01:23:49;20.38;;;12.90;;
54517;SDS011;40423;53.176;6.002;2022-11-20T01:26:17;18.98;;;12.57;;
54517;SDS011;40423;53.176;6.002;2022-11-20T01:28:44;20.13;;;12.60;;
54517;SDS011;40423;53.176;6.002;2022-11-20T01:31:14;19.67;;;11.90;;
54517;SDS011;40423;53.176;6.002;2022-11-20T01:36:11;17.98;;;11.15;;
54517;SDS011;40423;53.176;6.002;2022-11-20T01:38:37;16.75;;;10.38;;
54517;SDS011;40423;53.176;6.002;2022-11-20T01:41:03;19.83;;;13.52;;
54517;SDS011;40423;53.176;6.002;2022-11-20T01:43:30;22.55;;;14.88;;
54517;SDS011;40423;53.176;6.002;2022-11-20T01:48:45;15.55;;;10.32;;
54517;SDS011;40423;53.176;6.002;2022-11-20T01:51:17;14.18;;;9.75;;
54517;SDS011;40423;53.176;6.002;2022-11-20T01:53:47;20.95;;;13.13;;
54517;SDS011;40423;53.176;6.002;2022-11-20T01:56:13;16.67;;;10.40;;
54517;SDS011;40423;53.176;6.002;2022-11-20T01:58:41;16.67;;;10.80;;
54517;SDS011;40423;53.176;6.002;2022-11-20T02:01:21;18.73;;;11.82;;
54517;SDS011;40423;53.176;6.002;2022-11-20T02:03:47;15.77;;;10.23;;
54517;SDS011;40423;53.176;6.002;2022-11-20T02:06:30;18.52;;;11.15;;
54517;SDS011;40423;53.176;6.002;2022-11-20T02:09:00;17.33;;;11.18;;
54517;SDS011;40423;53.176;6.002;2022-11-20T02:11:26;15.48;;;9.95;;
54517;SDS011;40423;53.176;6.002;2022-11-20T02:13:52;20.92;;;12.18;;
54517;SDS011;40423;53.176;6.002;2022-11-20T02:16:24;19.42;;;11.75;;
54517;SDS011;40423;53.176;6.002;2022-11-20T02:18:54;19.20;;;11.50;;
54517;SDS011;40423;53.176;6.002;2022-11-20T02:24:16;14.35;;;9.65;;
54517;SDS011;40423;53.176;6.002;2022-11-20T02:26:49;19.60;;;12.18;;
54517;SDS011;40423;53.176;6.002;2022-11-20T02:29:19;17.55;;;10.30;;
54517;SDS011;40423;53.176;6.002;2022-11-20T02:31:59;18.92;;;10.70;;
54517;SDS011;40423;53.176;6.002;2022-11-20T02:34:26;17.77;;;11.75;;
54517;SDS011;40423;53.176;6.002;2022-11-20T02:36:52;20.77;;;13.00;;
54517;SDS011;40423;53.176;6.002;2022-11-20T02:39:19;17.13;;;10.50;;
54517;SDS011;40423;53.176;6.002;2022-11-20T02:41:45;15.55;;;10.10;;
54517;SDS011;40423;53.176;6.002;2022-11-20T02:44:11;22.83;;;12.75;;
54517;SDS011;40423;53.176;6.002;2022-11-20T02:46:37;18.60;;;12.35;;
54517;SDS011;40423;53.176;6.002;2022-11-20T02:49:03;17.00;;;10.02;;
54517;SDS011;40423;53.176;6.002;2022-11-20T02:51:30;17.70;;;10.77;;
54517;SDS011;40423;53.176;6.002;2022-11-20T02:53:57;17.52;;;11.95;;
54517;SDS011;40423;53.176;6.002;2022-11-20T02:56:22;19.13;;;11.40;;
54517;SDS011;40423;53.176;6.002;2022-11-20T02:58:49;19.88;;;11.40;;
54517;SDS011;40423;53.176;6.002;2022-11-20T03:01:14;15.27;;;10.65;;
54517;SDS011;40423;53.176;6.002;2022-11-20T03:03:40;15.32;;;10.02;;
54517;SDS011;40423;53.176;6.002;2022-11-20T03:06:06;16.75;;;10.05;;
54517;SDS011;40423;53.176;6.002;2022-11-20T03:08:33;21.98;;;12.50;;
54517;SDS011;40423;53.176;6.002;2022-11-20T03:11:03;17.88;;;10.95;;
54517;SDS011;40423;53.176;6.002;2022-11-20T03:13:32;18.50;;;11.35;;
54517;SDS011;40423;53.176;6.002;2022-11-20T03:16:03;16.15;;;10.38;;
54517;SDS011;40423;53.176;6.002;2022-11-20T03:18:40;17.40;;;10.10;;
54517;SDS011;40423;53.176;6.002;2022-11-20T03:21:07;19.55;;;12.18;;
54517;SDS011;40423;53.176;6.002;2022-11-20T03:23:34;16.05;;;11.32;;
54517;SDS011;40423;53.176;6.002;2022-11-20T03:28:56;15.02;;;9.82;;
54517;SDS011;40423;53.176;6.002;2022-11-20T03:31:28;16.92;;;10.65;;
54517;SDS011;40423;53.176;6.002;2022-11-20T03:33:58;16.23;;;9.63;;
54517;SDS011;40423;53.176;6.002;2022-11-20T03:36:24;17.83;;;11.63;;
54517;SDS011;40423;53.176;6.002;2022-11-20T03:38:52;19.17;;;12.00;;
54517;SDS011;40423;53.176;6.002;2022-11-20T03:41:19;17.45;;;10.40;;
54517;SDS011;40423;53.176;6.002;2022-11-20T03:43:51;16.58;;;10.10;;
54517;SDS011;40423;53.176;6.002;2022-11-20T03:46:18;17.13;;;10.25;;
54517;SDS011;40423;53.176;6.002;2022-11-20T03:48:44;15.07;;;9.18;;
54517;SDS011;40423;53.176;6.002;2022-11-20T03:53:36;14.82;;;8.82;;
54517;SDS011;40423;53.176;6.002;2022-11-20T03:56:02;17.33;;;10.15;;
54517;SDS011;40423;53.176;6.002;2022-11-20T03:58:28;17.08;;;11.38;;
54517;SDS011;40423;53.176;6.002;2022-11-20T04:00:54;18.48;;;12.07;;
54517;SDS011;40423;53.176;6.002;2022-11-20T04:03:20;15.77;;;10.75;;
54517;SDS011;40423;53.176;6.002;2022-11-20T04:05:46;16.42;;;9.60;;
54517;SDS011;40423;53.176;6.002;2022-11-20T04:08:11;15.43;;;9.73;;
54517;SDS011;40423;53.176;6.002;2022-11-20T04:10:37;16.42;;;10.98;;
54517;SDS011;40423;53.176;6.002;2022-11-20T04:13:03;15.32;;;9.70;;
54517;SDS011;40423;53.176;6.002;2022-11-20T04:15:28;18.02;;;11.68;;
54517;SDS011;40423;53.176;6.002;2022-11-20T04:17:54;17.92;;;12.05;;
54517;SDS011;40423;53.176;6.002;2022-11-20T04:20:20;16.40;;;10.13;;
54517;SDS011;40423;53.176;6.002;2022-11-20T04:22:46;16.02;;;10.60;;
54517;SDS011;40423;53.176;6.002;2022-11-20T04:25:11;16.80;;;10.23;;
54517;SDS011;40423;53.176;6.002;2022-11-20T04:27:37;16.83;;;10.45;;
54517;SDS011;40423;53.176;6.002;2022-11-20T04:30:03;15.88;;;9.75;;
54517;SDS011;40423;53.176;6.002;2022-11-20T04:32:29;14.55;;;9.50;;
54517;SDS011;40423;53.176;6.002;2022-11-20T04:34:55;18.13;;;10.52;;
54517;SDS011;40423;53.176;6.002;2022-11-20T04:37:20;15.30;;;10.02;;
54517;SDS011;40423;53.176;6.002;2022-11-20T04:39:46;17.13;;;11.02;;
54517;SDS011;40423;53.176;6.002;2022-11-20T04:42:12;17.92;;;11.20;;
54517;SDS011;40423;53.176;6.002;2022-11-20T04:44:56;16.55;;;10.40;;
54517;SDS011;40423;53.176;6.002;2022-11-20T04:47:22;19.65;;;10.68;;
54517;SDS011;40423;53.176;6.002;2022-11-20T04:49:48;18.20;;;10.68;;
54517;SDS011;40423;53.176;6.002;2022-11-20T04:52:13;15.35;;;10.20;;
54517;SDS011;40423;53.176;6.002;2022-11-20T04:54:39;14.23;;;9.75;;
54517;SDS011;40423;53.176;6.002;2022-11-20T04:57:05;15.35;;;9.48;;
54517;SDS011;40423;53.176;6.002;2022-11-20T04:59:30;17.30;;;11.35;;
54517;SDS011;40423;53.176;6.002;2022-11-20T05:01:56;15.52;;;10.80;;
54517;SDS011;40423;53.176;6.002;2022-11-20T05:04:22;16.23;;;10.40;;
54517;SDS011;40423;53.176;6.002;2022-11-20T05:06:49;16.35;;;10.30;;
54517;SDS011;40423;53.176;6.002;2022-11-20T05:09:15;18.38;;;10.55;;
54517;SDS011;40423;53.176;6.002;2022-11-20T05:11:40;17.75;;;10.88;;
54517;SDS011;40423;53.176;6.002;2022-11-20T05:14:06;14.30;;;9.50;;
54517;SDS011;40423;53.176;6.002;2022-11-20T05:16:33;16.55;;;10.63;;
54517;SDS011;40423;53.176;6.002;2022-11-20T05:18:59;17.33;;;11.32;;
54517;SDS011;40423;53.176;6.002;2022-11-20T05:21:25;16.67;;;11.23;;
54517;SDS011;40423;53.176;6.002;2022-11-20T05:23:50;20.50;;;12.18;;
54517;SDS011;40423;53.176;6.002;2022-11-20T05:26:20;16.80;;;10.77;;
54517;SDS011;40423;53.176;6.002;2022-11-20T05:28:47;17.83;;;10.52;;
54517;SDS011;40423;53.176;6.002;2022-11-20T05:31:18;14.88;;;10.57;;
54517;SDS011;40423;53.176;6.002;2022-11-20T05:33:45;16.33;;;10.50;;
54517;SDS011;40423;53.176;6.002;2022-11-20T05:36:12;18.80;;;11.45;;
54517;SDS011;40423;53.176;6.002;2022-11-20T05:38:39;19.67;;;12.55;;
54517;SDS011;40423;53.176;6.002;2022-11-20T05:41:12;17.10;;;10.23;;
54517;SDS011;40423;53.176;6.002;2022-11-20T05:43:41;17.05;;;11.10;;
54517;SDS011;40423;53.176;6.002;2022-11-20T05:46:09;15.10;;;10.35;;
54517;SDS011;40423;53.176;6.002;2022-11-20T05:48:37;15.65;;;10.32;;
54517;SDS011;40423;53.176;6.002;2022-11-20T05:51:04;17.67;;;10.00;;
54517;SDS011;40423;53.176;6.002;2022-11-20T05:53:32;14.20;;;9.90;;
54517;SDS011;40423;53.176;6.002;2022-11-20T05:56:00;16.40;;;10.60;;
54517;SDS011;40423;53.176;6.002;2022-11-20T05:58:27;15.20;;;9.85;;
54517;SDS011;40423;53.176;6.002;2022-11-20T06:00:54;18.55;;;11.18;;
54517;SDS011;40423;53.176;6.002;2022-11-20T06:03:19;14.93;;;9.65;;
54517;SDS011;40423;53.176;6.002;2022-11-20T06:05:45;15.77;;;10.60;;
54517;SDS011;40423;53.176;6.002;2022-11-20T06:08:11;16.48;;;10.98;;
54517;SDS011;40423;53.176;6.002;2022-11-20T06:10:37;17.83;;;11.63;;
54517;SDS011;40423;53.176;6.002;2022-11-20T06:13:03;16.02;;;10.85;;
54517;SDS011;40423;53.176;6.002;2022-11-20T06:15:28;15.90;;;9.60;;
54517;SDS011;40423;53.176;6.002;2022-11-20T06:17:54;19.10;;;11.15;;
54517;SDS011;40423;53.176;6.002;2022-11-20T06:20:21;16.30;;;11.25;;
54517;SDS011;40423;53.176;6.002;2022-11-20T06:22:47;15.27;;;10.05;;
54517;SDS011;40423;53.176;6.002;2022-11-20T06:25:12;17.73;;;10.65;;
54517;SDS011;40423;53.176;6.002;2022-11-20T06:27:38;17.75;;;10.48;;
54517;SDS011;40423;53.176;6.002;2022-11-20T06:30:04;19.25;;;12.43;;
54517;SDS011;40423;53.176;6.002;2022-11-20T06:32:30;18.77;;;12.00;;
54517;SDS011;40423;53.176;6.002;2022-11-20T06:34:57;17.33;;;11.48;;
54517;SDS011;40423;53.176;6.002;2022-11-20T06:37:23;16.23;;;11.27;;
54517;SDS011;40423;53.176;6.002;2022-11-20T06:39:48;16.38;;;11.02;;
54517;SDS011;40423;53.176;6.002;2022-11-20T06:42:14;14.85;;;10.07;;
54517;SDS011;40423;53.176;6.002;2022-11-20T06:44:40;15.52;;;10.25;;
54517;SDS011;40423;53.176;6.002;2022-11-20T06:47:05;16.58;;;11.75;;
54517;SDS011;40423;53.176;6.002;2022-11-20T06:49:31;15.18;;;9.82;;
54517;SDS011;40423;53.176;6.002;2022-11-20T06:51:59;17.23;;;11.15;;
54517;SDS011;40423;53.176;6.002;2022-11-20T06:54:25;17.25;;;11.82;;
54517;SDS011;40423;53.176;6.002;2022-11-20T06:56:50;14.93;;;9.82;;
54517;SDS011;40423;53.176;6.002;2022-11-20T06:59:16;17.92;;;11.60;;
54517;SDS011;40423;53.176;6.002;2022-11-20T07:01:42;17.38;;;11.57;;
54517;SDS011;40423;53.176;6.002;2022-11-20T07:04:07;17.83;;;11.63;;
54517;SDS011;40423;53.176;6.002;2022-11-20T07:06:33;19.92;;;12.27;;
54517;SDS011;40423;53.176;6.002;2022-11-20T07:09:01;16.42;;;10.77;;
54517;SDS011;40423;53.176;6.002;2022-11-20T07:11:26;17.90;;;11.50;;
54517;SDS011;40423;53.176;6.002;2022-11-20T07:13:52;16.23;;;11.23;;
54517;SDS011;40423;53.176;6.002;2022-11-20T07:16:18;18.88;;;12.23;;
54517;SDS011;40423;53.176;6.002;2022-11-20T07:18:43;17.85;;;11.80;;
54517;SDS011;40423;53.176;6.002;2022-11-20T07:21:09;20.20;;;13.00;;
54517;SDS011;40423;53.176;6.002;2022-11-20T07:23:35;18.00;;;11.57;;
54517;SDS011;40423;53.176;6.002;2022-11-20T07:26:02;18.40;;;11.00;;
54517;SDS011;40423;53.176;6.002;2022-11-20T07:28:29;19.52;;;12.35;;
54517;SDS011;40423;53.176;6.002;2022-11-20T07:30:55;16.35;;;12.13;;
54517;SDS011;40423;53.176;6.002;2022-11-20T07:33:21;16.85;;;10.52;;
54517;SDS011;40423;53.176;6.002;2022-11-20T07:35:46;17.08;;;11.02;;
54517;SDS011;40423;53.176;6.002;2022-11-20T07:38:12;18.08;;;11.68;;
54517;SDS011;40423;53.176;6.002;2022-11-20T07:40:38;17.67;;;12.05;;
54517;SDS011;40423;53.176;6.002;2022-11-20T07:43:04;16.67;;;11.50;;
54517;SDS011;40423;53.176;6.002;2022-11-20T07:45:29;18.63;;;13.13;;
54517;SDS011;40423;53.176;6.002;2022-11-20T07:47:55;22.15;;;12.30;;
54517;SDS011;40423;53.176;6.002;2022-11-20T07:50:21;17.38;;;11.85;;
54517;SDS011;40423;53.176;6.002;2022-11-20T07:52:47;19.48;;;12.32;;
54517;SDS011;40423;53.176;6.002;2022-11-20T07:55:12;19.58;;;12.63;;
54517;SDS011;40423;53.176;6.002;2022-11-20T07:57:38;17.25;;;11.80;;
54517;SDS011;40423;53.176;6.002;2022-11-20T08:00:05;17.33;;;11.23;;
54517;SDS011;40423;53.176;6.002;2022-11-20T08:02:34;17.58;;;11.45;;
54517;SDS011;40423;53.176;6.002;2022-11-20T08:05:01;18.70;;;10.82;;
54517;SDS011;40423;53.176;6.002;2022-11-20T08:07:27;16.70;;;11.30;;
54517;SDS011;40423;53.176;6.002;2022-11-20T08:09:53;21.02;;;12.63;;
54517;SDS011;40423;53.176;6.002;2022-11-20T08:12:19;18.63;;;11.63;;
54517;SDS011;40423;53.176;6.002;2022-11-20T08:15:04;18.05;;;11.40;;
54517;SDS011;40423;53.176;6.002;2022-11-20T08:17:31;18.38;;;12.07;;
54517;SDS011;40423;53.176;6.002;2022-11-20T08:19:57;16.30;;;11.50;;
54517;SDS011;40423;53.176;6.002;2022-11-20T08:22:22;16.92;;;11.73;;
54517;SDS011;40423;53.176;6.002;2022-11-20T08:24:49;19.33;;;11.88;;
54517;SDS011;40423;53.176;6.002;2022-11-20T08:27:15;16.90;;;11.60;;
54517;SDS011;40423;53.176;6.002;2022-11-20T08:29:41;18.65;;;13.23;;
54517;SDS011;40423;53.176;6.002;2022-11-20T08:32:07;17.75;;;12.18;;
54517;SDS011;40423;53.176;6.002;2022-11-20T08:34:32;19.88;;;12.60;;
54517;SDS011;40423;53.176;6.002;2022-11-20T08:36:58;17.67;;;11.77;;
54517;SDS011;40423;53.176;6.002;2022-11-20T08:39:24;19.52;;;11.40;;
54517;SDS011;40423;53.176;6.002;2022-11-20T08:41:49;15.80;;;10.30;;
54517;SDS011;40423;53.176;6.002;2022-11-20T08:44:15;16.85;;;10.85;;
54517;SDS011;40423;53.176;6.002;2022-11-20T08:46:41;18.10;;;10.88;;
54517;SDS011;40423;53.176;6.002;2022-11-20T08:49:09;17.35;;;11.25;;
54517;SDS011;40423;53.176;6.002;2022-11-20T08:51:36;18.35;;;11.85;;
54517;SDS011;40423;53.176;6.002;2022-11-20T08:54:02;15.38;;;10.80;;
54517;SDS011;40423;53.176;6.002;2022-11-20T08:56:29;18.77;;;11.93;;
54517;SDS011;40423;53.176;6.002;2022-11-20T08:58:54;17.40;;;11.45;;
54517;SDS011;40423;53.176;6.002;2022-11-20T09:01:20;16.90;;;11.70;;
54517;SDS011;40423;53.176;6.002;2022-11-20T09:03:47;18.50;;;11.32;;
54517;SDS011;40423;53.176;6.002;2022-11-20T09:06:13;16.55;;;9.98;;
54517;SDS011;40423;53.176;6.002;2022-11-20T09:08:54;13.68;;;8.75;;
54517;SDS011;40423;53.176;6.002;2022-11-20T09:11:20;16.25;;;11.05;;
54517;SDS011;40423;53.176;6.002;2022-11-20T09:13:46;19.48;;;15.68;;
54517;SDS011;40423;53.176;6.002;2022-11-20T09:16:12;15.95;;;12.55;;
54517;SDS011;40423;53.176;6.002;2022-11-20T09:18:38;17.17;;;12.73;;
54517;SDS011;40423;53.176;6.002;2022-11-20T09:21:08;15.88;;;10.68;;
54517;SDS011;40423;53.176;6.002;2022-11-20T09:23:35;16.02;;;11.15;;
54517;SDS011;40423;53.176;6.002;2022-11-20T09:26:12;15.98;;;11.27;;
54517;SDS011;40423;53.176;6.002;2022-11-20T09:28:39;13.30;;;8.73;;
54517;SDS011;40423;53.176;6.002;2022-11-20T09:31:08;14.00;;;9.13;;
54517;SDS011;40423;53.176;6.002;2022-11-20T09:33:39;14.25;;;9.45;;
54517;SDS011;40423;53.176;6.002;2022-11-20T09:36:05;15.48;;;9.95;;
54517;SDS011;40423;53.176;6.002;2022-11-20T09:38:30;15.57;;;10.80;;
54517;SDS011;40423;53.176;6.002;2022-11-20T09:40:57;14.52;;;10.15;;
54517;SDS011;40423;53.176;6.002;2022-11-20T09:46:17;14.88;;;9.63;;
54517;SDS011;40423;53.176;6.002;2022-11-20T09:48:59;14.73;;;9.40;;
54517;SDS011;40423;53.176;6.002;2022-11-20T09:56:39;14.45;;;9.45;;
54517;SDS011;40423;53.176;6.002;2022-11-20T09:59:07;13.57;;;9.52;;
54517;SDS011;40423;53.176;6.002;2022-11-20T10:01:57;14.43;;;9.77;;
54517;SDS011;40423;53.176;6.002;2022-11-20T10:04:25;12.95;;;8.45;;
54517;SDS011;40423;53.176;6.002;2022-11-20T10:07:02;13.00;;;9.30;;
54517;SDS011;40423;53.176;6.002;2022-11-20T10:09:37;13.93;;;8.88;;
54517;SDS011;40423;53.176;6.002;2022-11-20T10:15:30;13.75;;;9.63;;
54517;SDS011;40423;53.176;6.002;2022-11-20T10:18:09;14.10;;;9.73;;
54517;SDS011;40423;53.176;6.002;2022-11-20T10:23:56;13.77;;;9.43;;
54517;SDS011;40423;53.176;6.002;2022-11-20T10:26:35;10.90;;;8.13;;
54517;SDS011;40423;53.176;6.002;2022-11-20T10:31:36;12.30;;;8.77;;
54517;SDS011;40423;53.176;6.002;2022-11-20T10:37:27;12.90;;;8.55;;
54517;SDS011;40423;53.176;6.002;2022-11-20T10:40:00;13.38;;;7.53;;
54517;SDS011;40423;53.176;6.002;2022-11-20T10:50:36;10.85;;;7.10;;
54517;SDS011;40423;53.176;6.002;2022-11-20T10:53:14;9.95;;;6.68;;
54517;SDS011;40423;53.176;6.002;2022-11-20T10:56:17;9.48;;;6.65;;
54517;SDS011;40423;53.176;6.002;2022-11-20T11:01:26;9.57;;;5.95;;
54517;SDS011;40423;53.176;6.002;2022-11-20T11:03:52;8.70;;;5.57;;
54517;SDS011;40423;53.176;6.002;2022-11-20T11:06:34;9.55;;;5.57;;
54517;SDS011;40423;53.176;6.002;2022-11-20T11:09:40;9.48;;;5.00;;
54517;SDS011;40423;53.176;6.002;2022-11-20T11:12:05;7.93;;;5.93;;
54517;SDS011;40423;53.176;6.002;2022-11-20T11:14:41;6.95;;;4.88;;
54517;SDS011;40423;53.176;6.002;2022-11-20T11:17:21;7.90;;;5.22;;
54517;SDS011;40423;53.176;6.002;2022-11-20T11:20:14;8.88;;;6.07;;
54517;SDS011;40423;53.176;6.002;2022-11-20T11:22:46;8.77;;;5.85;;
54517;SDS011;40423;53.176;6.002;2022-11-20T11:25:32;10.98;;;7.10;;
54517;SDS011;40423;53.176;6.002;2022-11-20T11:28:02;10.65;;;7.10;;
54517;SDS011;40423;53.176;6.002;2022-11-20T11:30:29;8.80;;;6.25;;
54517;SDS011;40423;53.176;6.002;2022-11-20T11:33:08;8.80;;;5.97;;
54517;SDS011;40423;53.176;6.002;2022-11-20T11:35:50;9.10;;;6.03;;
54517;SDS011;40423;53.176;6.002;2022-11-20T11:41:03;7.68;;;5.47;;
54517;SDS011;40423;53.176;6.002;2022-11-20T11:43:34;8.43;;;5.80;;
54517;SDS011;40423;53.176;6.002;2022-11-20T11:49:46;9.70;;;6.80;;
54517;SDS011;40423;53.176;6.002;2022-11-20T11:52:03;12.25;;;6.72;;
54517;SDS011;40423;53.176;6.002;2022-11-20T12:05:26;7.93;;;5.57;;
54517;SDS011;40423;53.176;6.002;2022-11-20T12:10:32;8.13;;;4.93;;
54517;SDS011;40423;53.176;6.002;2022-11-20T12:15:49;8.18;;;5.40;;
54517;SDS011;40423;53.176;6.002;2022-11-20T12:18:19;7.35;;;4.50;;
54517;SDS011;40423;53.176;6.002;2022-11-20T12:21:21;6.80;;;4.68;;
54517;SDS011;40423;53.176;6.002;2022-11-20T12:29:15;7.82;;;5.07;;
54517;SDS011;40423;53.176;6.002;2022-11-20T12:34:36;7.20;;;4.95;;
54517;SDS011;40423;53.176;6.002;2022-11-20T12:37:23;8.70;;;5.20;;
54517;SDS011;40423;53.176;6.002;2022-11-20T12:45:56;7.55;;;5.43;;
54517;SDS011;40423;53.176;6.002;2022-11-20T12:57:19;8.25;;;5.32;;
54517;SDS011;40423;53.176;6.002;2022-11-20T13:00:02;7.93;;;5.43;;
54517;SDS011;40423;53.176;6.002;2022-11-20T13:07:43;8.32;;;5.88;;
54517;SDS011;40423;53.176;6.002;2022-11-20T13:10:33;8.02;;;5.22;;
54517;SDS011;40423;53.176;6.002;2022-11-20T13:15:42;11.77;;;7.32;;
54517;SDS011;40423;53.176;6.002;2022-11-20T13:18:17;10.80;;;7.00;;
54517;SDS011;40423;53.176;6.002;2022-11-20T13:20:44;9.07;;;5.85;;
54517;SDS011;40423;53.176;6.002;2022-11-20T13:23:10;9.02;;;5.70;;
54517;SDS011;40423;53.176;6.002;2022-11-20T13:25:39;7.72;;;5.20;;
54517;SDS011;40423;53.176;6.002;2022-11-20T13:30:34;7.95;;;5.70;;
54517;SDS011;40423;53.176;6.002;2022-11-20T13:35:40;8.45;;;5.88;;
54517;SDS011;40423;53.176;6.002;2022-11-20T13:38:08;8.13;;;5.50;;
54517;SDS011;40423;53.176;6.002;2022-11-20T13:43:49;9.23;;;5.00;;
54517;SDS011;40423;53.176;6.002;2022-11-20T13:46:17;8.63;;;4.97;;
54517;SDS011;40423;53.176;6.002;2022-11-20T13:48:49;7.18;;;5.63;;
54517;SDS011;40423;53.176;6.002;2022-11-20T13:51:50;8.20;;;5.43;;
54517;SDS011;40423;53.176;6.002;2022-11-20T13:54:22;8.43;;;5.32;;
54517;SDS011;40423;53.176;6.002;2022-11-20T13:57:14;8.43;;;5.72;;
54517;SDS011;40423;53.176;6.002;2022-11-20T13:59:57;8.25;;;5.10;;
54517;SDS011;40423;53.176;6.002;2022-11-20T14:02:35;8.75;;;5.43;;
54517;SDS011;40423;53.176;6.002;2022-11-20T14:07:49;7.70;;;5.20;;
54517;SDS011;40423;53.176;6.002;2022-11-20T14:10:23;8.05;;;5.47;;
54517;SDS011;40423;53.176;6.002;2022-11-20T14:12:52;9.65;;;5.30;;
54517;SDS011;40423;53.176;6.002;2022-11-20T14:15:32;8.70;;;6.22;;
54517;SDS011;40423;53.176;6.002;2022-11-20T14:17:59;7.88;;;5.20;;
54517;SDS011;40423;53.176;6.002;2022-11-20T14:20:36;7.45;;;4.97;;
54517;SDS011;40423;53.176;6.002;2022-11-20T14:23:03;8.75;;;5.70;;
54517;SDS011;40423;53.176;6.002;2022-11-20T14:25:30;8.20;;;6.35;;
54517;SDS011;40423;53.176;6.002;2022-11-20T14:28:00;8.43;;;6.18;;
54517;SDS011;40423;53.176;6.002;2022-11-20T14:33:09;9.48;;;5.82;;
54517;SDS011;40423;53.176;6.002;2022-11-20T14:35:40;13.55;;;7.70;;
54517;SDS011;40423;53.176;6.002;2022-11-20T14:38:12;9.43;;;6.22;;
54517;SDS011;40423;53.176;6.002;2022-11-20T14:40:41;7.85;;;5.45;;
54517;SDS011;40423;53.176;6.002;2022-11-20T14:43:23;8.55;;;5.38;;
54517;SDS011;40423;53.176;6.002;2022-11-20T14:46:01;7.47;;;5.43;;
54517;SDS011;40423;53.176;6.002;2022-11-20T14:48:33;9.60;;;5.78;;
54517;SDS011;40423;53.176;6.002;2022-11-20T14:51:04;7.90;;;5.47;;
54517;SDS011;40423;53.176;6.002;2022-11-20T14:53:30;8.88;;;5.57;;
54517;SDS011;40423;53.176;6.002;2022-11-20T14:56:00;8.65;;;5.47;;
54517;SDS011;40423;53.176;6.002;2022-11-20T14:58:27;7.68;;;5.70;;
54517;SDS011;40423;53.176;6.002;2022-11-20T15:03:32;10.38;;;6.10;;
54517;SDS011;40423;53.176;6.002;2022-11-20T15:06:03;9.30;;;5.88;;
54517;SDS011;40423;53.176;6.002;2022-11-20T15:08:31;9.30;;;6.10;;
54517;SDS011;40423;53.176;6.002;2022-11-20T15:10:57;8.27;;;5.38;;
54517;SDS011;40423;53.176;6.002;2022-11-20T15:13:30;9.55;;;5.93;;
54517;SDS011;40423;53.176;6.002;2022-11-20T15:15:57;9.45;;;6.60;;
54517;SDS011;40423;53.176;6.002;2022-11-20T15:18:27;9.55;;;5.55;;
54517;SDS011;40423;53.176;6.002;2022-11-20T15:21:08;8.35;;;6.05;;
54517;SDS011;40423;53.176;6.002;2022-11-20T15:23:36;7.68;;;5.55;;
54517;SDS011;40423;53.176;6.002;2022-11-20T15:26:06;8.75;;;5.43;;
54517;SDS011;40423;53.176;6.002;2022-11-20T15:31:02;8.85;;;5.90;;
54517;SDS011;40423;53.176;6.002;2022-11-20T15:33:30;12.50;;;6.22;;
54517;SDS011;40423;53.176;6.002;2022-11-20T15:35:59;7.35;;;5.13;;
54517;SDS011;40423;53.176;6.002;2022-11-20T15:38:25;8.45;;;5.68;;
54517;SDS011;40423;53.176;6.002;2022-11-20T15:40:51;8.85;;;5.95;;
54517;SDS011;40423;53.176;6.002;2022-11-20T15:43:16;9.35;;;6.25;;
54517;SDS011;40423;53.176;6.002;2022-11-20T15:45:43;8.63;;;5.63;;
54517;SDS011;40423;53.176;6.002;2022-11-20T15:53:35;9.98;;;6.72;;
54517;SDS011;40423;53.176;6.002;2022-11-20T15:56:04;11.18;;;6.25;;
54517;SDS011;40423;53.176;6.002;2022-11-20T15:58:30;10.43;;;7.15;;
54517;SDS011;40423;53.176;6.002;2022-11-20T16:00:55;10.15;;;7.25;;
54517;SDS011;40423;53.176;6.002;2022-11-20T16:03:21;9.77;;;6.60;;
54517;SDS011;40423;53.176;6.002;2022-11-20T16:05:48;11.02;;;8.35;;
54517;SDS011;40423;53.176;6.002;2022-11-20T16:08:13;9.68;;;7.35;;
54517;SDS011;40423;53.176;6.002;2022-11-20T16:10:39;13.32;;;7.55;;
54517;SDS011;40423;53.176;6.002;2022-11-20T16:13:11;9.88;;;7.53;;
54517;SDS011;40423;53.176;6.002;2022-11-20T16:15:58;11.13;;;7.35;;
54517;SDS011;40423;53.176;6.002;2022-11-20T16:18:30;10.23;;;6.88;;
54517;SDS011;40423;53.176;6.002;2022-11-20T16:20:56;10.23;;;7.18;;
54517;SDS011;40423;53.176;6.002;2022-11-20T16:23:25;9.40;;;6.80;;
54517;SDS011;40423;53.176;6.002;2022-11-20T16:25:50;9.35;;;6.55;;
54517;SDS011;40423;53.176;6.002;2022-11-20T16:28:16;12.13;;;6.85;;
54517;SDS011;40423;53.176;6.002;2022-11-20T16:30:42;9.18;;;6.88;;
54517;SDS011;40423;53.176;6.002;2022-11-20T16:33:14;10.32;;;7.00;;
54517;SDS011;40423;53.176;6.002;2022-11-20T16:35:41;12.05;;;7.95;;
54517;SDS011;40423;53.176;6.002;2022-11-20T16:38:07;11.30;;;7.53;;
54517;SDS011;40423;53.176;6.002;2022-11-20T16:40:34;11.82;;;7.78;;
54517;SDS011;40423;53.176;6.002;2022-11-20T16:43:09;14.63;;;8.40;;